Biggs Field, Texas
Current Conditions -  °F | °C
As of 2:58 AM on Saturday 25 Oct 2014 (Local Time) from KBIF Reporting Station
Clear Clear  
Wind Chill: 55°   Ceiling: Unl
Heat Index: 55°   Visibility: 10mi
Dew Point: 51°   Wind: 3mph
Humidity: 85%   Direction: 60°ENE
Pressure: 30.21"   Gusts: NA
Location:  31.8457°N, 106.377°W
Report Text: KBIF 250858Z AUTO 06003KT 10SM CLR 13/10 A3021 RMK AO2 SLP178 T01280104 53001 $
Loading
Personal Weather Stations






























Interactive Weather Map
Tropical Storm Tracking
New forecast layout! Learn more

10-Day Weather Forecast

Advertisements
Track Severe Weather on mobile